sensor_id;sensor_type;location;lat;lon;timestamp;P1;durP1;ratioP1;P2;durP2;ratioP2
15142;SDS011;7672;50.834;6.286;2023-07-30T00:00:53;5.03;;;3.03;;
15142;SDS011;7672;50.834;6.286;2023-07-30T00:03:20;3.97;;;2.67;;
15142;SDS011;7672;50.834;6.286;2023-07-30T00:05:53;7.07;;;2.77;;
15142;SDS011;7672;50.834;6.286;2023-07-30T00:08:22;3.43;;;2.50;;
15142;SDS011;7672;50.834;6.286;2023-07-30T00:10:50;4.77;;;2.70;;
15142;SDS011;7672;50.834;6.286;2023-07-30T00:13:17;7.00;;;2.60;;
15142;SDS011;7672;50.834;6.286;2023-07-30T00:15:47;3.00;;;2.57;;
15142;SDS011;7672;50.834;6.286;2023-07-30T00:18:15;6.23;;;2.60;;
15142;SDS011;7672;50.834;6.286;2023-07-30T00:20:43;10.70;;;3.13;;
15142;SDS011;7672;50.834;6.286;2023-07-30T00:23:10;4.07;;;3.00;;
15142;SDS011;7672;50.834;6.286;2023-07-30T00:25:37;5.07;;;2.77;;
15142;SDS011;7672;50.834;6.286;2023-07-30T00:28:04;10.13;;;3.33;;
15142;SDS011;7672;50.834;6.286;2023-07-30T00:30:31;5.13;;;3.03;;
15142;SDS011;7672;50.834;6.286;2023-07-30T00:32:58;6.63;;;3.40;;
15142;SDS011;7672;50.834;6.286;2023-07-30T00:35:25;4.57;;;2.63;;
15142;SDS011;7672;50.834;6.286;2023-07-30T00:37:52;2.83;;;2.57;;
15142;SDS011;7672;50.834;6.286;2023-07-30T00:40:19;6.03;;;2.47;;
15142;SDS011;7672;50.834;6.286;2023-07-30T00:42:46;5.73;;;2.63;;
15142;SDS011;7672;50.834;6.286;2023-07-30T00:45:14;7.07;;;3.23;;
15142;SDS011;7672;50.834;6.286;2023-07-30T00:47:41;4.77;;;2.50;;
15142;SDS011;7672;50.834;6.286;2023-07-30T00:50:09;5.93;;;2.87;;
15142;SDS011;7672;50.834;6.286;2023-07-30T00:52:39;4.77;;;2.87;;
15142;SDS011;7672;50.834;6.286;2023-07-30T00:55:07;4.60;;;3.13;;
15142;SDS011;7672;50.834;6.286;2023-07-30T00:57:36;7.10;;;2.97;;
15142;SDS011;7672;50.834;6.286;2023-07-30T01:00:04;5.00;;;2.77;;
15142;SDS011;7672;50.834;6.286;2023-07-30T01:02:35;3.63;;;2.60;;
15142;SDS011;7672;50.834;6.286;2023-07-30T01:05:03;9.10;;;2.70;;
15142;SDS011;7672;50.834;6.286;2023-07-30T01:07:31;7.37;;;2.87;;
15142;SDS011;7672;50.834;6.286;2023-07-30T01:09:59;3.43;;;2.77;;
15142;SDS011;7672;50.834;6.286;2023-07-30T01:12:27;5.77;;;2.50;;
15142;SDS011;7672;50.834;6.286;2023-07-30T01:15:00;5.33;;;3.00;;
15142;SDS011;7672;50.834;6.286;2023-07-30T01:17:29;6.73;;;2.80;;
15142;SDS011;7672;50.834;6.286;2023-07-30T01:19:57;6.20;;;2.73;;
15142;SDS011;7672;50.834;6.286;2023-07-30T01:22:24;5.53;;;2.80;;
15142;SDS011;7672;50.834;6.286;2023-07-30T01:24:51;5.23;;;2.63;;
15142;SDS011;7672;50.834;6.286;2023-07-30T01:27:22;5.10;;;3.13;;
15142;SDS011;7672;50.834;6.286;2023-07-30T01:30:00;4.17;;;2.70;;
15142;SDS011;7672;50.834;6.286;2023-07-30T01:32:42;7.30;;;2.87;;
15142;SDS011;7672;50.834;6.286;2023-07-30T01:35:11;6.37;;;2.73;;
15142;SDS011;7672;50.834;6.286;2023-07-30T01:37:41;5.93;;;2.83;;
15142;SDS011;7672;50.834;6.286;2023-07-30T01:40:10;7.57;;;3.10;;
15142;SDS011;7672;50.834;6.286;2023-07-30T01:42:39;5.63;;;2.83;;
15142;SDS011;7672;50.834;6.286;2023-07-30T01:45:06;7.70;;;3.10;;
15142;SDS011;7672;50.834;6.286;2023-07-30T01:47:33;4.67;;;2.40;;
15142;SDS011;7672;50.834;6.286;2023-07-30T01:50:00;4.47;;;2.93;;
15142;SDS011;7672;50.834;6.286;2023-07-30T01:52:28;5.33;;;3.23;;
15142;SDS011;7672;50.834;6.286;2023-07-30T01:54:55;9.40;;;2.93;;
15142;SDS011;7672;50.834;6.286;2023-07-30T01:57:23;6.90;;;2.83;;
15142;SDS011;7672;50.834;6.286;2023-07-30T01:59:50;7.50;;;2.70;;
15142;SDS011;7672;50.834;6.286;2023-07-30T02:02:17;4.03;;;2.47;;
15142;SDS011;7672;50.834;6.286;2023-07-30T02:04:44;5.97;;;2.80;;
15142;SDS011;7672;50.834;6.286;2023-07-30T02:07:11;4.17;;;2.50;;
15142;SDS011;7672;50.834;6.286;2023-07-30T02:09:39;7.10;;;3.20;;
15142;SDS011;7672;50.834;6.286;2023-07-30T02:12:07;10.57;;;3.03;;
15142;SDS011;7672;50.834;6.286;2023-07-30T02:14:34;6.33;;;2.37;;
15142;SDS011;7672;50.834;6.286;2023-07-30T02:17:02;8.27;;;2.53;;
15142;SDS011;7672;50.834;6.286;2023-07-30T02:19:29;7.20;;;2.40;;
15142;SDS011;7672;50.834;6.286;2023-07-30T02:21:56;7.73;;;3.13;;
15142;SDS011;7672;50.834;6.286;2023-07-30T02:24:23;12.30;;;3.33;;
15142;SDS011;7672;50.834;6.286;2023-07-30T02:26:50;6.47;;;2.93;;
15142;SDS011;7672;50.834;6.286;2023-07-30T02:29:17;8.87;;;3.10;;
15142;SDS011;7672;50.834;6.286;2023-07-30T02:31:45;7.83;;;3.60;;
15142;SDS011;7672;50.834;6.286;2023-07-30T02:34:12;6.47;;;2.93;;
15142;SDS011;7672;50.834;6.286;2023-07-30T02:36:39;5.67;;;2.77;;
15142;SDS011;7672;50.834;6.286;2023-07-30T02:39:06;6.70;;;2.70;;
15142;SDS011;7672;50.834;6.286;2023-07-30T02:41:33;9.53;;;3.10;;
15142;SDS011;7672;50.834;6.286;2023-07-30T02:44:00;6.97;;;3.03;;
15142;SDS011;7672;50.834;6.286;2023-07-30T02:46:29;7.53;;;3.03;;
15142;SDS011;7672;50.834;6.286;2023-07-30T02:48:56;4.20;;;2.60;;
15142;SDS011;7672;50.834;6.286;2023-07-30T02:51:23;8.93;;;2.57;;
15142;SDS011;7672;50.834;6.286;2023-07-30T02:53:56;5.63;;;2.80;;
15142;SDS011;7672;50.834;6.286;2023-07-30T02:56:27;7.27;;;2.90;;
15142;SDS011;7672;50.834;6.286;2023-07-30T02:58:54;5.80;;;2.63;;
15142;SDS011;7672;50.834;6.286;2023-07-30T03:01:21;7.37;;;2.73;;
15142;SDS011;7672;50.834;6.286;2023-07-30T03:03:49;5.33;;;2.83;;
15142;SDS011;7672;50.834;6.286;2023-07-30T03:06:16;5.93;;;2.87;;
15142;SDS011;7672;50.834;6.286;2023-07-30T03:08:43;10.07;;;2.77;;
15142;SDS011;7672;50.834;6.286;2023-07-30T03:11:10;5.30;;;2.43;;
15142;SDS011;7672;50.834;6.286;2023-07-30T03:13:37;8.77;;;2.90;;
15142;SDS011;7672;50.834;6.286;2023-07-30T03:16:04;5.60;;;2.67;;
15142;SDS011;7672;50.834;6.286;2023-07-30T03:18:31;10.80;;;2.67;;
15142;SDS011;7672;50.834;6.286;2023-07-30T03:20:59;9.07;;;2.60;;
15142;SDS011;7672;50.834;6.286;2023-07-30T03:23:27;8.13;;;2.50;;
15142;SDS011;7672;50.834;6.286;2023-07-30T03:25:54;6.00;;;2.27;;
15142;SDS011;7672;50.834;6.286;2023-07-30T03:28:21;5.80;;;2.40;;
15142;SDS011;7672;50.834;6.286;2023-07-30T03:30:48;3.93;;;2.43;;
15142;SDS011;7672;50.834;6.286;2023-07-30T03:33:16;5.87;;;2.67;;
15142;SDS011;7672;50.834;6.286;2023-07-30T03:35:43;9.83;;;2.40;;
15142;SDS011;7672;50.834;6.286;2023-07-30T03:38:10;5.13;;;2.40;;
15142;SDS011;7672;50.834;6.286;2023-07-30T03:40:37;5.83;;;2.70;;
15142;SDS011;7672;50.834;6.286;2023-07-30T03:43:04;6.17;;;2.70;;
15142;SDS011;7672;50.834;6.286;2023-07-30T03:45:31;3.67;;;1.90;;
15142;SDS011;7672;50.834;6.286;2023-07-30T03:47:59;8.97;;;2.40;;
15142;SDS011;7672;50.834;6.286;2023-07-30T03:50:26;7.33;;;3.63;;
15142;SDS011;7672;50.834;6.286;2023-07-30T03:52:53;6.10;;;2.30;;
15142;SDS011;7672;50.834;6.286;2023-07-30T03:55:20;9.60;;;2.67;;
15142;SDS011;7672;50.834;6.286;2023-07-30T03:57:47;7.13;;;2.57;;
15142;SDS011;7672;50.834;6.286;2023-07-30T04:00:14;7.23;;;2.37;;
15142;SDS011;7672;50.834;6.286;2023-07-30T04:02:41;6.70;;;2.40;;
15142;SDS011;7672;50.834;6.286;2023-07-30T04:05:09;8.20;;;2.80;;
15142;SDS011;7672;50.834;6.286;2023-07-30T04:07:36;5.80;;;2.50;;
15142;SDS011;7672;50.834;6.286;2023-07-30T04:10:06;7.10;;;2.83;;
15142;SDS011;7672;50.834;6.286;2023-07-30T04:12:34;5.93;;;2.43;;
15142;SDS011;7672;50.834;6.286;2023-07-30T04:15:02;6.67;;;2.40;;
15142;SDS011;7672;50.834;6.286;2023-07-30T04:17:29;9.93;;;2.43;;
15142;SDS011;7672;50.834;6.286;2023-07-30T04:19:57;3.67;;;2.03;;
15142;SDS011;7672;50.834;6.286;2023-07-30T04:22:24;10.87;;;2.83;;
15142;SDS011;7672;50.834;6.286;2023-07-30T04:24:51;7.93;;;2.40;;
15142;SDS011;7672;50.834;6.286;2023-07-30T04:27:19;8.20;;;2.50;;
15142;SDS011;7672;50.834;6.286;2023-07-30T04:29:46;4.90;;;2.00;;
15142;SDS011;7672;50.834;6.286;2023-07-30T04:32:13;6.57;;;2.30;;
15142;SDS011;7672;50.834;6.286;2023-07-30T04:34:41;4.87;;;2.37;;
15142;SDS011;7672;50.834;6.286;2023-07-30T04:37:08;6.27;;;2.43;;
15142;SDS011;7672;50.834;6.286;2023-07-30T04:39:35;7.60;;;2.47;;
15142;SDS011;7672;50.834;6.286;2023-07-30T04:42:03;6.63;;;2.20;;
15142;SDS011;7672;50.834;6.286;2023-07-30T04:44:31;7.70;;;2.27;;
15142;SDS011;7672;50.834;6.286;2023-07-30T04:47:09;9.97;;;2.37;;
15142;SDS011;7672;50.834;6.286;2023-07-30T04:49:36;4.90;;;1.80;;
15142;SDS011;7672;50.834;6.286;2023-07-30T04:52:07;5.40;;;2.10;;
15142;SDS011;7672;50.834;6.286;2023-07-30T04:54:34;5.93;;;2.50;;
15142;SDS011;7672;50.834;6.286;2023-07-30T04:57:04;6.27;;;2.57;;
15142;SDS011;7672;50.834;6.286;2023-07-30T04:59:32;7.90;;;2.10;;
15142;SDS011;7672;50.834;6.286;2023-07-30T05:02:01;7.45;;;2.70;;
15142;SDS011;7672;50.834;6.286;2023-07-30T05:04:29;4.87;;;2.50;;
15142;SDS011;7672;50.834;6.286;2023-07-30T05:06:56;8.10;;;2.47;;
15142;SDS011;7672;50.834;6.286;2023-07-30T05:09:23;8.83;;;2.80;;
15142;SDS011;7672;50.834;6.286;2023-07-30T05:11:50;4.93;;;2.00;;
15142;SDS011;7672;50.834;6.286;2023-07-30T05:14:17;5.03;;;2.20;;
15142;SDS011;7672;50.834;6.286;2023-07-30T05:16:44;4.60;;;2.07;;
15142;SDS011;7672;50.834;6.286;2023-07-30T05:19:11;4.90;;;2.43;;
15142;SDS011;7672;50.834;6.286;2023-07-30T05:21:38;7.20;;;1.90;;
15142;SDS011;7672;50.834;6.286;2023-07-30T05:24:07;4.27;;;1.73;;
15142;SDS011;7672;50.834;6.286;2023-07-30T05:26:34;7.80;;;2.60;;
15142;SDS011;7672;50.834;6.286;2023-07-30T05:29:01;4.67;;;1.87;;
15142;SDS011;7672;50.834;6.286;2023-07-30T05:31:29;4.53;;;2.03;;
15142;SDS011;7672;50.834;6.286;2023-07-30T05:33:56;4.20;;;1.60;;
15142;SDS011;7672;50.834;6.286;2023-07-30T05:36:23;5.00;;;1.73;;
15142;SDS011;7672;50.834;6.286;2023-07-30T05:38:50;6.67;;;1.63;;
15142;SDS011;7672;50.834;6.286;2023-07-30T05:41:17;4.30;;;1.63;;
15142;SDS011;7672;50.834;6.286;2023-07-30T05:43:44;2.83;;;1.43;;
15142;SDS011;7672;50.834;6.286;2023-07-30T05:46:11;6.03;;;1.73;;
15142;SDS011;7672;50.834;6.286;2023-07-30T05:48:39;7.47;;;1.67;;
15142;SDS011;7672;50.834;6.286;2023-07-30T05:51:06;5.47;;;1.70;;
15142;SDS011;7672;50.834;6.286;2023-07-30T05:53:33;5.10;;;1.73;;
15142;SDS011;7672;50.834;6.286;2023-07-30T05:56:00;5.27;;;2.00;;
15142;SDS011;7672;50.834;6.286;2023-07-30T05:58:27;4.23;;;1.60;;
15142;SDS011;7672;50.834;6.286;2023-07-30T06:00:54;5.67;;;1.57;;
15142;SDS011;7672;50.834;6.286;2023-07-30T06:03:21;5.70;;;1.50;;
15142;SDS011;7672;50.834;6.286;2023-07-30T06:05:48;3.63;;;1.40;;
15142;SDS011;7672;50.834;6.286;2023-07-30T06:08:15;4.47;;;1.40;;
15142;SDS011;7672;50.834;6.286;2023-07-30T06:10:42;3.13;;;1.40;;
15142;SDS011;7672;50.834;6.286;2023-07-30T06:13:10;5.43;;;1.57;;
15142;SDS011;7672;50.834;6.286;2023-07-30T06:15:37;2.50;;;1.07;;
15142;SDS011;7672;50.834;6.286;2023-07-30T06:18:04;3.30;;;1.37;;
15142;SDS011;7672;50.834;6.286;2023-07-30T06:20:31;3.73;;;1.20;;
15142;SDS011;7672;50.834;6.286;2023-07-30T06:22:58;3.57;;;1.60;;
15142;SDS011;7672;50.834;6.286;2023-07-30T06:25:25;3.30;;;1.27;;
15142;SDS011;7672;50.834;6.286;2023-07-30T06:27:53;6.20;;;1.40;;
15142;SDS011;7672;50.834;6.286;2023-07-30T06:30:20;5.37;;;1.37;;
15142;SDS011;7672;50.834;6.286;2023-07-30T06:32:47;5.20;;;2.13;;
15142;SDS011;7672;50.834;6.286;2023-07-30T06:35:14;4.50;;;1.40;;
15142;SDS011;7672;50.834;6.286;2023-07-30T06:37:41;4.13;;;1.60;;
15142;SDS011;7672;50.834;6.286;2023-07-30T06:40:08;5.37;;;1.60;;
15142;SDS011;7672;50.834;6.286;2023-07-30T06:42:36;3.97;;;1.90;;
15142;SDS011;7672;50.834;6.286;2023-07-30T06:45:03;6.03;;;1.80;;
15142;SDS011;7672;50.834;6.286;2023-07-30T06:47:30;4.73;;;1.73;;
15142;SDS011;7672;50.834;6.286;2023-07-30T06:50:01;10.43;;;2.57;;
15142;SDS011;7672;50.834;6.286;2023-07-30T06:52:30;5.80;;;1.97;;
15142;SDS011;7672;50.834;6.286;2023-07-30T06:54:57;6.87;;;2.27;;
15142;SDS011;7672;50.834;6.286;2023-07-30T06:57:24;9.73;;;2.30;;
15142;SDS011;7672;50.834;6.286;2023-07-30T06:59:51;6.07;;;1.90;;
15142;SDS011;7672;50.834;6.286;2023-07-30T07:02:18;8.60;;;2.33;;
15142;SDS011;7672;50.834;6.286;2023-07-30T07:04:45;6.80;;;2.43;;
15142;SDS011;7672;50.834;6.286;2023-07-30T07:07:12;5.17;;;2.13;;
15142;SDS011;7672;50.834;6.286;2023-07-30T07:09:39;7.53;;;2.60;;
15142;SDS011;7672;50.834;6.286;2023-07-30T07:12:07;9.10;;;2.20;;
15142;SDS011;7672;50.834;6.286;2023-07-30T07:14:34;5.93;;;2.70;;
15142;SDS011;7672;50.834;6.286;2023-07-30T07:17:02;6.53;;;2.07;;
15142;SDS011;7672;50.834;6.286;2023-07-30T07:19:29;6.40;;;2.30;;
15142;SDS011;7672;50.834;6.286;2023-07-30T07:21:56;6.23;;;2.10;;
15142;SDS011;7672;50.834;6.286;2023-07-30T07:24:23;8.23;;;2.30;;
15142;SDS011;7672;50.834;6.286;2023-07-30T07:26:50;7.43;;;2.47;;
15142;SDS011;7672;50.834;6.286;2023-07-30T07:29:17;6.47;;;2.63;;
15142;SDS011;7672;50.834;6.286;2023-07-30T07:31:45;8.20;;;2.50;;
15142;SDS011;7672;50.834;6.286;2023-07-30T07:34:12;9.30;;;2.40;;
15142;SDS011;7672;50.834;6.286;2023-07-30T07:36:39;9.20;;;2.77;;
15142;SDS011;7672;50.834;6.286;2023-07-30T07:39:06;10.80;;;3.07;;
15142;SDS011;7672;50.834;6.286;2023-07-30T07:41:34;9.43;;;3.03;;
15142;SDS011;7672;50.834;6.286;2023-07-30T07:44:02;8.77;;;2.50;;
15142;SDS011;7672;50.834;6.286;2023-07-30T07:46:29;10.33;;;2.70;;
15142;SDS011;7672;50.834;6.286;2023-07-30T07:48:56;6.13;;;2.50;;
15142;SDS011;7672;50.834;6.286;2023-07-30T07:51:23;11.03;;;3.10;;
15142;SDS011;7672;50.834;6.286;2023-07-30T07:53:51;7.93;;;2.63;;
15142;SDS011;7672;50.834;6.286;2023-07-30T07:56:18;11.27;;;3.28;;
15142;SDS011;7672;50.834;6.286;2023-07-30T07:58:45;9.40;;;2.72;;
15142;SDS011;7672;50.834;6.286;2023-07-30T08:01:12;5.17;;;2.30;;
15142;SDS011;7672;50.834;6.286;2023-07-30T08:03:40;11.13;;;3.30;;
15142;SDS011;7672;50.834;6.286;2023-07-30T08:06:07;9.67;;;2.50;;
15142;SDS011;7672;50.834;6.286;2023-07-30T08:08:35;7.80;;;2.50;;
15142;SDS011;7672;50.834;6.286;2023-07-30T08:11:06;7.82;;;2.83;;
15142;SDS011;7672;50.834;6.286;2023-07-30T08:13:34;6.57;;;2.40;;
15142;SDS011;7672;50.834;6.286;2023-07-30T08:16:02;5.60;;;2.22;;
15142;SDS011;7672;50.834;6.286;2023-07-30T08:18:29;10.98;;;2.78;;
15142;SDS011;7672;50.834;6.286;2023-07-30T08:20:56;11.18;;;2.70;;
15142;SDS011;7672;50.834;6.286;2023-07-30T08:23:23;9.35;;;2.45;;
15142;SDS011;7672;50.834;6.286;2023-07-30T08:25:50;9.38;;;2.45;;
15142;SDS011;7672;50.834;6.286;2023-07-30T08:28:18;8.02;;;2.50;;
15142;SDS011;7672;50.834;6.286;2023-07-30T08:30:45;5.68;;;2.22;;
15142;SDS011;7672;50.834;6.286;2023-07-30T08:33:12;7.13;;;2.30;;
15142;SDS011;7672;50.834;6.286;2023-07-30T08:35:40;6.55;;;2.47;;
15142;SDS011;7672;50.834;6.286;2023-07-30T08:38:07;7.97;;;2.53;;
15142;SDS011;7672;50.834;6.286;2023-07-30T08:40:34;12.15;;;2.50;;
15142;SDS011;7672;50.834;6.286;2023-07-30T08:43:02;8.20;;;2.70;;
15142;SDS011;7672;50.834;6.286;2023-07-30T08:45:30;8.68;;;2.50;;
15142;SDS011;7672;50.834;6.286;2023-07-30T08:47:57;7.80;;;2.67;;
15142;SDS011;7672;50.834;6.286;2023-07-30T08:50:25;7.35;;;2.42;;
15142;SDS011;7672;50.834;6.286;2023-07-30T08:52:54;7.88;;;2.35;;
15142;SDS011;7672;50.834;6.286;2023-07-30T08:55:23;6.75;;;2.40;;
15142;SDS011;7672;50.834;6.286;2023-07-30T08:57:53;8.10;;;2.75;;
15142;SDS011;7672;50.834;6.286;2023-07-30T09:00:22;7.75;;;2.40;;
15142;SDS011;7672;50.834;6.286;2023-07-30T09:02:52;7.40;;;2.60;;
15142;SDS011;7672;50.834;6.286;2023-07-30T09:05:22;6.43;;;2.58;;
15142;SDS011;7672;50.834;6.286;2023-07-30T09:07:49;6.40;;;2.17;;
15142;SDS011;7672;50.834;6.286;2023-07-30T09:10:17;5.20;;;1.88;;
15142;SDS011;7672;50.834;6.286;2023-07-30T09:12:44;9.05;;;2.33;;
15142;SDS011;7672;50.834;6.286;2023-07-30T09:15:14;7.85;;;2.65;;
15142;SDS011;7672;50.834;6.286;2023-07-30T09:17:42;7.63;;;2.38;;
15142;SDS011;7672;50.834;6.286;2023-07-30T09:20:09;7.85;;;2.75;;
15142;SDS011;7672;50.834;6.286;2023-07-30T09:22:37;5.53;;;2.55;;
15142;SDS011;7672;50.834;6.286;2023-07-30T09:25:07;9.32;;;2.70;;
15142;SDS011;7672;50.834;6.286;2023-07-30T09:27:35;9.10;;;2.70;;
15142;SDS011;7672;50.834;6.286;2023-07-30T09:30:02;6.78;;;2.92;;
15142;SDS011;7672;50.834;6.286;2023-07-30T09:32:33;6.63;;;2.70;;
15142;SDS011;7672;50.834;6.286;2023-07-30T09:35:08;7.30;;;2.65;;
15142;SDS011;7672;50.834;6.286;2023-07-30T09:37:40;9.18;;;2.58;;
15142;SDS011;7672;50.834;6.286;2023-07-30T09:40:11;4.18;;;2.35;;
15142;SDS011;7672;50.834;6.286;2023-07-30T09:42:45;9.50;;;2.92;;
15142;SDS011;7672;50.834;6.286;2023-07-30T09:45:21;7.45;;;2.40;;
15142;SDS011;7672;50.834;6.286;2023-07-30T09:47:52;6.75;;;2.60;;
15142;SDS011;7672;50.834;6.286;2023-07-30T09:50:20;4.47;;;2.00;;
15142;SDS011;7672;50.834;6.286;2023-07-30T09:52:47;7.93;;;2.10;;
15142;SDS011;7672;50.834;6.286;2023-07-30T09:55:16;4.55;;;2.17;;
15142;SDS011;7672;50.834;6.286;2023-07-30T09:57:45;4.47;;;2.17;;
15142;SDS011;7672;50.834;6.286;2023-07-30T10:00:12;4.28;;;2.15;;
15142;SDS011;7672;50.834;6.286;2023-07-30T10:02:40;5.65;;;2.28;;
15142;SDS011;7672;50.834;6.286;2023-07-30T10:05:14;4.60;;;2.10;;
15142;SDS011;7672;50.834;6.286;2023-07-30T10:07:48;3.25;;;1.75;;
15142;SDS011;7672;50.834;6.286;2023-07-30T10:10:22;4.97;;;1.90;;
15142;SDS011;7672;50.834;6.286;2023-07-30T10:12:52;2.00;;;1.55;;
15142;SDS011;7672;50.834;6.286;2023-07-30T10:15:24;4.35;;;2.00;;
15142;SDS011;7672;50.834;6.286;2023-07-30T10:17:52;4.78;;;2.00;;
15142;SDS011;7672;50.834;6.286;2023-07-30T10:20:25;4.28;;;1.95;;
15142;SDS011;7672;50.834;6.286;2023-07-30T10:22:59;4.93;;;1.90;;
15142;SDS011;7672;50.834;6.286;2023-07-30T10:25:29;4.38;;;2.10;;
15142;SDS011;7672;50.834;6.286;2023-07-30T10:31:11;4.90;;;1.90;;
15142;SDS011;7672;50.834;6.286;2023-07-30T10:33:47;2.75;;;1.50;;
15142;SDS011;7672;50.834;6.286;2023-07-30T10:43:38;4.57;;;1.83;;
15142;SDS011;7672;50.834;6.286;2023-07-30T10:46:10;3.83;;;1.55;;
15142;SDS011;7672;50.834;6.286;2023-07-30T10:48:40;3.42;;;1.50;;
15142;SDS011;7672;50.834;6.286;2023-07-30T10:51:10;2.58;;;1.67;;
15142;SDS011;7672;50.834;6.286;2023-07-30T10:53:43;2.50;;;1.60;;
15142;SDS011;7672;50.834;6.286;2023-07-30T10:56:13;3.55;;;2.03;;
15142;SDS011;7672;50.834;6.286;2023-07-30T10:58:43;5.18;;;2.20;;
15142;SDS011;7672;50.834;6.286;2023-07-30T11:01:17;4.95;;;1.90;;
15142;SDS011;7672;50.834;6.286;2023-07-30T11:03:49;7.80;;;1.73;;
15142;SDS011;7672;50.834;6.286;2023-07-30T11:06:23;3.50;;;1.75;;
15142;SDS011;7672;50.834;6.286;2023-07-30T11:08:52;4.32;;;1.88;;
15142;SDS011;7672;50.834;6.286;2023-07-30T11:11:20;4.50;;;2.03;;
15142;SDS011;7672;50.834;6.286;2023-07-30T11:13:47;3.53;;;1.88;;
15142;SDS011;7672;50.834;6.286;2023-07-30T11:16:14;5.22;;;2.67;;
15142;SDS011;7672;50.834;6.286;2023-07-30T11:18:42;4.03;;;1.80;;
15142;SDS011;7672;50.834;6.286;2023-07-30T11:21:11;4.18;;;2.08;;
15142;SDS011;7672;50.834;6.286;2023-07-30T11:23:43;7.03;;;2.17;;
15142;SDS011;7672;50.834;6.286;2023-07-30T11:26:16;6.53;;;2.20;;
15142;SDS011;7672;50.834;6.286;2023-07-30T11:28:45;4.00;;;1.83;;
15142;SDS011;7672;50.834;6.286;2023-07-30T11:31:17;9.07;;;2.15;;
15142;SDS011;7672;50.834;6.286;2023-07-30T11:33:48;5.35;;;2.17;;
15142;SDS011;7672;50.834;6.286;2023-07-30T11:36:21;4.43;;;2.20;;
15142;SDS011;7672;50.834;6.286;2023-07-30T11:38:51;4.80;;;2.50;;
15142;SDS011;7672;50.834;6.286;2023-07-30T11:41:19;5.63;;;2.22;;
15142;SDS011;7672;50.834;6.286;2023-07-30T11:43:49;4.72;;;2.10;;
15142;SDS011;7672;50.834;6.286;2023-07-30T11:46:18;7.03;;;2.72;;
15142;SDS011;7672;50.834;6.286;2023-07-30T11:48:49;4.20;;;2.10;;
15142;SDS011;7672;50.834;6.286;2023-07-30T11:51:23;5.40;;;2.42;;
15142;SDS011;7672;50.834;6.286;2023-07-30T11:53:55;6.93;;;2.13;;
15142;SDS011;7672;50.834;6.286;2023-07-30T11:56:25;4.05;;;2.10;;
15142;SDS011;7672;50.834;6.286;2023-07-30T11:59:06;4.88;;;2.03;;
15142;SDS011;7672;50.834;6.286;2023-07-30T12:01:35;4.38;;;1.98;;
15142;SDS011;7672;50.834;6.286;2023-07-30T12:04:04;4.50;;;2.22;;
15142;SDS011;7672;50.834;6.286;2023-07-30T12:06:43;3.63;;;1.95;;
15142;SDS011;7672;50.834;6.286;2023-07-30T12:11:56;3.42;;;1.90;;
15142;SDS011;7672;50.834;6.286;2023-07-30T12:14:27;6.40;;;1.77;;
15142;SDS011;7672;50.834;6.286;2023-07-30T12:17:08;4.32;;;1.90;;
15142;SDS011;7672;50.834;6.286;2023-07-30T12:19:35;5.38;;;2.13;;
15142;SDS011;7672;50.834;6.286;2023-07-30T12:22:03;3.65;;;2.13;;
15142;SDS011;7672;50.834;6.286;2023-07-30T12:24:30;4.78;;;2.17;;
15142;SDS011;7672;50.834;6.286;2023-07-30T12:26:57;3.40;;;1.83;;
15142;SDS011;7672;50.834;6.286;2023-07-30T12:29:24;6.80;;;2.65;;
15142;SDS011;7672;50.834;6.286;2023-07-30T12:31:52;4.43;;;2.17;;
15142;SDS011;7672;50.834;6.286;2023-07-30T12:34:22;5.95;;;2.17;;
15142;SDS011;7672;50.834;6.286;2023-07-30T12:36:50;4.40;;;2.22;;
15142;SDS011;7672;50.834;6.286;2023-07-30T12:39:17;4.35;;;2.08;;
15142;SDS011;7672;50.834;6.286;2023-07-30T12:41:44;5.30;;;2.38;;
15142;SDS011;7672;50.834;6.286;2023-07-30T12:44:11;4.88;;;2.05;;
15142;SDS011;7672;50.834;6.286;2023-07-30T12:46:38;6.25;;;2.17;;
15142;SDS011;7672;50.834;6.286;2023-07-30T12:49:05;5.75;;;1.90;;
15142;SDS011;7672;50.834;6.286;2023-07-30T12:51:32;3.65;;;1.77;;
15142;SDS011;7672;50.834;6.286;2023-07-30T12:54:00;5.78;;;2.30;;
15142;SDS011;7672;50.834;6.286;2023-07-30T12:56:27;7.68;;;2.08;;
15142;SDS011;7672;50.834;6.286;2023-07-30T12:58:54;4.43;;;1.80;;
15142;SDS011;7672;50.834;6.286;2023-07-30T13:01:21;4.55;;;1.90;;
15142;SDS011;7672;50.834;6.286;2023-07-30T13:03:50;7.53;;;2.25;;
15142;SDS011;7672;50.834;6.286;2023-07-30T13:06:18;5.18;;;2.00;;
15142;SDS011;7672;50.834;6.286;2023-07-30T13:08:45;5.43;;;2.25;;
15142;SDS011;7672;50.834;6.286;2023-07-30T13:11:12;4.60;;;1.58;;
15142;SDS011;7672;50.834;6.286;2023-07-30T13:13:39;5.32;;;2.10;;
15142;SDS011;7672;50.834;6.286;2023-07-30T13:16:06;5.47;;;1.80;;
15142;SDS011;7672;50.834;6.286;2023-07-30T13:18:34;6.30;;;2.10;;
15142;SDS011;7672;50.834;6.286;2023-07-30T13:21:01;5.00;;;1.95;;
15142;SDS011;7672;50.834;6.286;2023-07-30T13:23:28;5.70;;;1.80;;
15142;SDS011;7672;50.834;6.286;2023-07-30T13:25:56;5.75;;;1.92;;
15142;SDS011;7672;50.834;6.286;2023-07-30T13:28:23;5.35;;;2.17;;
15142;SDS011;7672;50.834;6.286;2023-07-30T13:30:51;4.03;;;1.75;;
15142;SDS011;7672;50.834;6.286;2023-07-30T13:33:19;3.42;;;1.55;;
15142;SDS011;7672;50.834;6.286;2023-07-30T13:35:46;5.10;;;1.80;;
15142;SDS011;7672;50.834;6.286;2023-07-30T13:38:13;6.22;;;2.05;;
15142;SDS011;7672;50.834;6.286;2023-07-30T13:40:40;4.30;;;1.70;;
15142;SDS011;7672;50.834;6.286;2023-07-30T13:43:07;5.88;;;1.98;;
15142;SDS011;7672;50.834;6.286;2023-07-30T13:45:34;8.73;;;2.15;;
15142;SDS011;7672;50.834;6.286;2023-07-30T13:48:02;5.30;;;1.98;;
15142;SDS011;7672;50.834;6.286;2023-07-30T13:50:29;5.55;;;2.33;;
15142;SDS011;7672;50.834;6.286;2023-07-30T13:52:56;3.22;;;2.20;;
15142;SDS011;7672;50.834;6.286;2023-07-30T13:55:23;7.45;;;2.55;;
15142;SDS011;7672;50.834;6.286;2023-07-30T13:57:50;5.32;;;2.28;;
15142;SDS011;7672;50.834;6.286;2023-07-30T14:00:17;5.45;;;2.40;;
15142;SDS011;7672;50.834;6.286;2023-07-30T14:02:44;3.95;;;2.28;;
15142;SDS011;7672;50.834;6.286;2023-07-30T14:05:11;3.80;;;1.77;;
15142;SDS011;7672;50.834;6.286;2023-07-30T14:07:39;4.70;;;1.90;;
15142;SDS011;7672;50.834;6.286;2023-07-30T14:10:07;4.15;;;1.95;;
15142;SDS011;7672;50.834;6.286;2023-07-30T14:12:35;5.57;;;2.30;;
15142;SDS011;7672;50.834;6.286;2023-07-30T14:15:03;4.75;;;2.35;;
15142;SDS011;7672;50.834;6.286;2023-07-30T14:17:32;4.07;;;2.20;;
15142;SDS011;7672;50.834;6.286;2023-07-30T14:19:59;3.45;;;2.15;;
15142;SDS011;7672;50.834;6.286;2023-07-30T14:22:26;3.67;;;1.80;;
15142;SDS011;7672;50.834;6.286;2023-07-30T14:24:53;2.63;;;1.70;;
15142;SDS011;7672;50.834;6.286;2023-07-30T14:27:20;4.72;;;2.00;;
15142;SDS011;7672;50.834;6.286;2023-07-30T14:29:47;3.40;;;2.15;;
15142;SDS011;7672;50.834;6.286;2023-07-30T14:32:15;4.25;;;2.20;;
15142;SDS011;7672;50.834;6.286;2023-07-30T14:34:42;4.57;;;2.00;;
15142;SDS011;7672;50.834;6.286;2023-07-30T14:37:09;4.20;;;2.28;;
15142;SDS011;7672;50.834;6.286;2023-07-30T14:39:36;4.82;;;1.90;;
15142;SDS011;7672;50.834;6.286;2023-07-30T14:42:03;5.80;;;2.17;;
15142;SDS011;7672;50.834;6.286;2023-07-30T14:44:30;4.35;;;1.90;;
15142;SDS011;7672;50.834;6.286;2023-07-30T14:46:58;4.18;;;2.30;;
15142;SDS011;7672;50.834;6.286;2023-07-30T14:49:26;6.93;;;2.75;;
15142;SDS011;7672;50.834;6.286;2023-07-30T14:51:53;6.53;;;2.30;;
15142;SDS011;7672;50.834;6.286;2023-07-30T14:54:20;4.35;;;2.13;;
15142;SDS011;7672;50.834;6.286;2023-07-30T14:56:47;5.78;;;2.08;;
15142;SDS011;7672;50.834;6.286;2023-07-30T14:59:15;5.63;;;2.15;;
15142;SDS011;7672;50.834;6.286;2023-07-30T15:01:41;5.05;;;1.95;;
15142;SDS011;7672;50.834;6.286;2023-07-30T15:04:09;5.18;;;2.00;;
15142;SDS011;7672;50.834;6.286;2023-07-30T15:06:36;7.95;;;2.75;;
15142;SDS011;7672;50.834;6.286;2023-07-30T15:09:04;6.47;;;2.50;;
15142;SDS011;7672;50.834;6.286;2023-07-30T15:11:32;4.25;;;2.10;;
15142;SDS011;7672;50.834;6.286;2023-07-30T15:13:58;7.15;;;2.47;;
15142;SDS011;7672;50.834;6.286;2023-07-30T15:16:25;4.40;;;2.10;;
15142;SDS011;7672;50.834;6.286;2023-07-30T15:18:52;5.10;;;2.30;;